sensor_id;sensor_type;location;lat;lon;timestamp;P1;durP1;ratioP1;P2;durP2;ratioP2
49392;SDS011;35268;42.642;23.308;2023-05-10T00:01:02;6.30;;;4.28;;
49392;SDS011;35268;42.642;23.308;2023-05-10T00:03:28;5.43;;;4.00;;
49392;SDS011;35268;42.642;23.308;2023-05-10T00:05:53;7.15;;;4.18;;
49392;SDS011;35268;42.642;23.308;2023-05-10T00:08:19;6.57;;;4.18;;
49392;SDS011;35268;42.642;23.308;2023-05-10T00:10:44;6.78;;;3.95;;
49392;SDS011;35268;42.642;23.308;2023-05-10T00:13:09;8.00;;;4.53;;
49392;SDS011;35268;42.642;23.308;2023-05-10T00:15:35;6.43;;;4.53;;
49392;SDS011;35268;42.642;23.308;2023-05-10T00:18:00;5.70;;;4.03;;
49392;SDS011;35268;42.642;23.308;2023-05-10T00:20:26;6.13;;;3.90;;
49392;SDS011;35268;42.642;23.308;2023-05-10T00:22:51;5.63;;;4.45;;
49392;SDS011;35268;42.642;23.308;2023-05-10T00:25:17;6.03;;;4.32;;
49392;SDS011;35268;42.642;23.308;2023-05-10T00:27:42;7.15;;;4.72;;
49392;SDS011;35268;42.642;23.308;2023-05-10T00:30:08;5.95;;;4.43;;
49392;SDS011;35268;42.642;23.308;2023-05-10T00:32:34;7.55;;;4.05;;
49392;SDS011;35268;42.642;23.308;2023-05-10T00:34:59;7.60;;;4.15;;
49392;SDS011;35268;42.642;23.308;2023-05-10T00:37:24;6.72;;;4.47;;
49392;SDS011;35268;42.642;23.308;2023-05-10T00:39:50;8.02;;;4.10;;
49392;SDS011;35268;42.642;23.308;2023-05-10T00:42:15;5.90;;;4.13;;
49392;SDS011;35268;42.642;23.308;2023-05-10T00:44:41;6.00;;;4.22;;
49392;SDS011;35268;42.642;23.308;2023-05-10T00:47:06;5.97;;;4.50;;
49392;SDS011;35268;42.642;23.308;2023-05-10T00:49:32;7.72;;;5.25;;
49392;SDS011;35268;42.642;23.308;2023-05-10T00:51:59;7.47;;;4.57;;
49392;SDS011;35268;42.642;23.308;2023-05-10T00:54:25;6.60;;;4.82;;
49392;SDS011;35268;42.642;23.308;2023-05-10T00:56:50;6.45;;;4.95;;
49392;SDS011;35268;42.642;23.308;2023-05-10T00:59:16;6.53;;;4.93;;
49392;SDS011;35268;42.642;23.308;2023-05-10T01:01:43;6.00;;;4.22;;
49392;SDS011;35268;42.642;23.308;2023-05-10T01:04:10;9.55;;;4.85;;
49392;SDS011;35268;42.642;23.308;2023-05-10T01:06:38;7.20;;;5.25;;
49392;SDS011;35268;42.642;23.308;2023-05-10T01:09:04;6.28;;;4.95;;
49392;SDS011;35268;42.642;23.308;2023-05-10T01:11:31;6.40;;;4.47;;
49392;SDS011;35268;42.642;23.308;2023-05-10T01:13:57;8.45;;;4.65;;
49392;SDS011;35268;42.642;23.308;2023-05-10T01:16:23;10.73;;;5.15;;
49392;SDS011;35268;42.642;23.308;2023-05-10T01:18:50;8.13;;;4.30;;
49392;SDS011;35268;42.642;23.308;2023-05-10T01:32:21;8.18;;;4.80;;
49392;SDS011;35268;42.642;23.308;2023-05-10T01:34:55;12.02;;;5.10;;
49392;SDS011;35268;42.642;23.308;2023-05-10T01:37:33;7.07;;;4.13;;
49392;SDS011;35268;42.642;23.308;2023-05-10T01:40:20;6.63;;;4.68;;
49392;SDS011;35268;42.642;23.308;2023-05-10T01:42:51;5.55;;;4.20;;
49392;SDS011;35268;42.642;23.308;2023-05-10T01:45:27;7.32;;;4.25;;
49392;SDS011;35268;42.642;23.308;2023-05-10T01:48:06;9.55;;;3.97;;
49392;SDS011;35268;42.642;23.308;2023-05-10T01:50:35;5.80;;;4.13;;
49392;SDS011;35268;42.642;23.308;2023-05-10T01:53:02;5.43;;;4.15;;
49392;SDS011;35268;42.642;23.308;2023-05-10T01:55:33;9.80;;;4.43;;
49392;SDS011;35268;42.642;23.308;2023-05-10T01:58:04;5.07;;;3.55;;
49392;SDS011;35268;42.642;23.308;2023-05-10T02:00:35;7.70;;;3.92;;
49392;SDS011;35268;42.642;23.308;2023-05-10T02:03:04;7.35;;;4.15;;
49392;SDS011;35268;42.642;23.308;2023-05-10T02:05:32;4.38;;;3.20;;
49392;SDS011;35268;42.642;23.308;2023-05-10T02:08:01;6.70;;;3.55;;
49392;SDS011;35268;42.642;23.308;2023-05-10T02:10:28;7.10;;;4.00;;
49392;SDS011;35268;42.642;23.308;2023-05-10T02:12:54;4.68;;;3.40;;
49392;SDS011;35268;42.642;23.308;2023-05-10T02:15:23;5.10;;;3.38;;
49392;SDS011;35268;42.642;23.308;2023-05-10T02:17:50;5.15;;;2.78;;
49392;SDS011;35268;42.642;23.308;2023-05-10T02:20:18;6.25;;;3.15;;
49392;SDS011;35268;42.642;23.308;2023-05-10T02:22:45;4.70;;;2.72;;
49392;SDS011;35268;42.642;23.308;2023-05-10T02:25:13;3.80;;;2.63;;
49392;SDS011;35268;42.642;23.308;2023-05-10T02:27:41;5.15;;;3.80;;
49392;SDS011;35268;42.642;23.308;2023-05-10T02:30:07;6.75;;;3.28;;
49392;SDS011;35268;42.642;23.308;2023-05-10T02:32:34;5.03;;;3.42;;
49392;SDS011;35268;42.642;23.308;2023-05-10T02:35:00;11.02;;;3.10;;
49392;SDS011;35268;42.642;23.308;2023-05-10T02:37:27;7.05;;;3.40;;
49392;SDS011;35268;42.642;23.308;2023-05-10T02:39:54;7.93;;;4.03;;
49392;SDS011;35268;42.642;23.308;2023-05-10T02:42:22;5.55;;;3.65;;
49392;SDS011;35268;42.642;23.308;2023-05-10T02:44:50;8.02;;;5.18;;
49392;SDS011;35268;42.642;23.308;2023-05-10T02:47:17;9.50;;;3.85;;
49392;SDS011;35268;42.642;23.308;2023-05-10T02:49:43;6.00;;;4.03;;
49392;SDS011;35268;42.642;23.308;2023-05-10T02:52:09;6.50;;;3.67;;
49392;SDS011;35268;42.642;23.308;2023-05-10T02:54:39;11.13;;;4.22;;
49392;SDS011;35268;42.642;23.308;2023-05-10T02:57:08;5.45;;;3.42;;
49392;SDS011;35268;42.642;23.308;2023-05-10T02:59:39;5.97;;;3.92;;
49392;SDS011;35268;42.642;23.308;2023-05-10T03:02:05;5.70;;;3.70;;
49392;SDS011;35268;42.642;23.308;2023-05-10T03:04:31;9.35;;;4.07;;
49392;SDS011;35268;42.642;23.308;2023-05-10T03:06:56;5.68;;;3.42;;
49392;SDS011;35268;42.642;23.308;2023-05-10T03:09:22;6.80;;;4.03;;
49392;SDS011;35268;42.642;23.308;2023-05-10T03:17:18;11.70;;;3.35;;
49392;SDS011;35268;42.642;23.308;2023-05-10T03:22:24;6.97;;;3.90;;
49392;SDS011;35268;42.642;23.308;2023-05-10T03:24:54;6.53;;;3.53;;
49392;SDS011;35268;42.642;23.308;2023-05-10T03:27:22;6.32;;;3.60;;
49392;SDS011;35268;42.642;23.308;2023-05-10T03:29:50;9.80;;;4.05;;
49392;SDS011;35268;42.642;23.308;2023-05-10T03:32:16;5.85;;;3.85;;
49392;SDS011;35268;42.642;23.308;2023-05-10T03:34:42;5.57;;;3.83;;
49392;SDS011;35268;42.642;23.308;2023-05-10T03:37:10;6.32;;;4.05;;
49392;SDS011;35268;42.642;23.308;2023-05-10T03:39:36;6.28;;;3.78;;
49392;SDS011;35268;42.642;23.308;2023-05-10T03:42:01;9.75;;;4.70;;
49392;SDS011;35268;42.642;23.308;2023-05-10T03:44:27;9.02;;;4.40;;
49392;SDS011;35268;42.642;23.308;2023-05-10T03:46:52;9.60;;;4.72;;
49392;SDS011;35268;42.642;23.308;2023-05-10T03:49:18;7.85;;;4.38;;
49392;SDS011;35268;42.642;23.308;2023-05-10T03:51:43;5.70;;;4.00;;
49392;SDS011;35268;42.642;23.308;2023-05-10T03:54:09;12.00;;;4.38;;
49392;SDS011;35268;42.642;23.308;2023-05-10T03:56:34;6.57;;;4.28;;
49392;SDS011;35268;42.642;23.308;2023-05-10T03:59:00;7.57;;;4.82;;
49392;SDS011;35268;42.642;23.308;2023-05-10T04:01:25;7.68;;;4.07;;
49392;SDS011;35268;42.642;23.308;2023-05-10T04:03:51;6.78;;;4.47;;
49392;SDS011;35268;42.642;23.308;2023-05-10T04:06:16;6.20;;;3.70;;
49392;SDS011;35268;42.642;23.308;2023-05-10T04:08:42;6.78;;;4.18;;
49392;SDS011;35268;42.642;23.308;2023-05-10T04:11:08;18.30;;;7.18;;
49392;SDS011;35268;42.642;23.308;2023-05-10T04:13:34;6.55;;;4.28;;
49392;SDS011;35268;42.642;23.308;2023-05-10T04:16:00;6.32;;;3.95;;
49392;SDS011;35268;42.642;23.308;2023-05-10T04:18:25;9.38;;;4.47;;
49392;SDS011;35268;42.642;23.308;2023-05-10T04:20:51;7.40;;;4.85;;
49392;SDS011;35268;42.642;23.308;2023-05-10T04:23:16;9.18;;;4.70;;
49392;SDS011;35268;42.642;23.308;2023-05-10T04:25:42;16.83;;;5.03;;
49392;SDS011;35268;42.642;23.308;2023-05-10T04:28:07;8.07;;;4.50;;
49392;SDS011;35268;42.642;23.308;2023-05-10T04:30:33;8.75;;;4.78;;
49392;SDS011;35268;42.642;23.308;2023-05-10T04:32:59;9.88;;;4.75;;
49392;SDS011;35268;42.642;23.308;2023-05-10T04:35:24;5.82;;;4.45;;
49392;SDS011;35268;42.642;23.308;2023-05-10T04:37:51;10.85;;;4.47;;
49392;SDS011;35268;42.642;23.308;2023-05-10T04:40:16;7.95;;;4.70;;
49392;SDS011;35268;42.642;23.308;2023-05-10T04:42:42;9.00;;;5.15;;
49392;SDS011;35268;42.642;23.308;2023-05-10T04:45:08;9.80;;;5.22;;
49392;SDS011;35268;42.642;23.308;2023-05-10T04:47:35;8.15;;;4.60;;
49392;SDS011;35268;42.642;23.308;2023-05-10T04:50:04;6.60;;;4.05;;
49392;SDS011;35268;42.642;23.308;2023-05-10T04:52:31;9.98;;;5.47;;
49392;SDS011;35268;42.642;23.308;2023-05-10T04:54:56;7.35;;;4.55;;
49392;SDS011;35268;42.642;23.308;2023-05-10T04:57:22;11.57;;;4.45;;
49392;SDS011;35268;42.642;23.308;2023-05-10T04:59:47;8.68;;;4.68;;
49392;SDS011;35268;42.642;23.308;2023-05-10T05:02:13;7.57;;;4.45;;
49392;SDS011;35268;42.642;23.308;2023-05-10T05:04:39;11.02;;;4.57;;
49392;SDS011;35268;42.642;23.308;2023-05-10T05:07:04;8.00;;;4.55;;
49392;SDS011;35268;42.642;23.308;2023-05-10T05:09:30;5.93;;;4.22;;
49392;SDS011;35268;42.642;23.308;2023-05-10T05:11:57;7.50;;;4.43;;
49392;SDS011;35268;42.642;23.308;2023-05-10T05:14:23;6.55;;;4.30;;
49392;SDS011;35268;42.642;23.308;2023-05-10T05:16:52;7.18;;;4.65;;
49392;SDS011;35268;42.642;23.308;2023-05-10T05:19:18;6.95;;;4.53;;
49392;SDS011;35268;42.642;23.308;2023-05-10T05:21:44;9.57;;;5.63;;
49392;SDS011;35268;42.642;23.308;2023-05-10T05:24:09;8.52;;;4.82;;
49392;SDS011;35268;42.642;23.308;2023-05-10T05:26:36;7.95;;;4.97;;
49392;SDS011;35268;42.642;23.308;2023-05-10T05:29:04;9.23;;;5.43;;
49392;SDS011;35268;42.642;23.308;2023-05-10T05:31:30;10.25;;;5.32;;
49392;SDS011;35268;42.642;23.308;2023-05-10T05:33:58;9.52;;;5.03;;
49392;SDS011;35268;42.642;23.308;2023-05-10T05:36:24;9.20;;;5.75;;
49392;SDS011;35268;42.642;23.308;2023-05-10T05:38:49;11.93;;;5.45;;
49392;SDS011;35268;42.642;23.308;2023-05-10T05:41:15;11.35;;;5.20;;
49392;SDS011;35268;42.642;23.308;2023-05-10T05:43:40;9.82;;;6.20;;
49392;SDS011;35268;42.642;23.308;2023-05-10T05:46:06;9.77;;;6.63;;
49392;SDS011;35268;42.642;23.308;2023-05-10T05:48:32;10.57;;;5.97;;
49392;SDS011;35268;42.642;23.308;2023-05-10T05:50:57;13.68;;;6.38;;
49392;SDS011;35268;42.642;23.308;2023-05-10T05:53:25;10.45;;;6.78;;
49392;SDS011;35268;42.642;23.308;2023-05-10T05:55:57;9.98;;;6.72;;
49392;SDS011;35268;42.642;23.308;2023-05-10T05:58:24;12.23;;;6.45;;
49392;SDS011;35268;42.642;23.308;2023-05-10T06:00:52;12.38;;;6.07;;
49392;SDS011;35268;42.642;23.308;2023-05-10T06:03:17;14.63;;;7.18;;
49392;SDS011;35268;42.642;23.308;2023-05-10T06:05:43;13.90;;;7.90;;
49392;SDS011;35268;42.642;23.308;2023-05-10T06:08:09;13.48;;;7.82;;
49392;SDS011;35268;42.642;23.308;2023-05-10T06:10:35;12.27;;;8.30;;
49392;SDS011;35268;42.642;23.308;2023-05-10T06:13:00;12.73;;;7.65;;
49392;SDS011;35268;42.642;23.308;2023-05-10T06:15:26;17.02;;;8.02;;
49392;SDS011;35268;42.642;23.308;2023-05-10T06:17:52;13.95;;;7.60;;
49392;SDS011;35268;42.642;23.308;2023-05-10T06:20:18;15.00;;;8.32;;
49392;SDS011;35268;42.642;23.308;2023-05-10T06:22:43;16.50;;;7.78;;
49392;SDS011;35268;42.642;23.308;2023-05-10T06:25:09;11.60;;;6.97;;
49392;SDS011;35268;42.642;23.308;2023-05-10T06:27:34;13.52;;;8.13;;
49392;SDS011;35268;42.642;23.308;2023-05-10T06:30:00;14.05;;;7.38;;
49392;SDS011;35268;42.642;23.308;2023-05-10T06:32:28;11.73;;;6.65;;
49392;SDS011;35268;42.642;23.308;2023-05-10T06:34:54;10.73;;;6.03;;
49392;SDS011;35268;42.642;23.308;2023-05-10T06:37:19;18.40;;;7.38;;
49392;SDS011;35268;42.642;23.308;2023-05-10T06:39:47;12.82;;;7.63;;
49392;SDS011;35268;42.642;23.308;2023-05-10T06:42:13;18.00;;;7.38;;
49392;SDS011;35268;42.642;23.308;2023-05-10T06:44:38;14.93;;;7.28;;
49392;SDS011;35268;42.642;23.308;2023-05-10T06:47:04;13.98;;;7.72;;
49392;SDS011;35268;42.642;23.308;2023-05-10T06:49:30;13.75;;;6.88;;
49392;SDS011;35268;42.642;23.308;2023-05-10T06:51:55;10.73;;;7.30;;
49392;SDS011;35268;42.642;23.308;2023-05-10T06:54:21;15.00;;;8.15;;
49392;SDS011;35268;42.642;23.308;2023-05-10T06:56:48;14.02;;;7.90;;
49392;SDS011;35268;42.642;23.308;2023-05-10T06:59:13;13.07;;;7.70;;
49392;SDS011;35268;42.642;23.308;2023-05-10T07:01:40;13.00;;;7.68;;
49392;SDS011;35268;42.642;23.308;2023-05-10T07:04:05;18.70;;;8.50;;
49392;SDS011;35268;42.642;23.308;2023-05-10T07:06:32;17.50;;;8.90;;
49392;SDS011;35268;42.642;23.308;2023-05-10T07:08:58;11.90;;;7.90;;
49392;SDS011;35268;42.642;23.308;2023-05-10T07:11:24;10.60;;;7.55;;
49392;SDS011;35268;42.642;23.308;2023-05-10T07:13:49;14.52;;;8.52;;
49392;SDS011;35268;42.642;23.308;2023-05-10T07:16:15;17.75;;;7.63;;
49392;SDS011;35268;42.642;23.308;2023-05-10T07:18:40;14.65;;;8.48;;
49392;SDS011;35268;42.642;23.308;2023-05-10T07:21:06;11.27;;;6.93;;
49392;SDS011;35268;42.642;23.308;2023-05-10T07:23:31;11.35;;;7.20;;
49392;SDS011;35268;42.642;23.308;2023-05-10T07:25:57;13.23;;;7.57;;
49392;SDS011;35268;42.642;23.308;2023-05-10T07:28:23;19.52;;;9.18;;
49392;SDS011;35268;42.642;23.308;2023-05-10T07:30:51;17.67;;;7.80;;
49392;SDS011;35268;42.642;23.308;2023-05-10T07:33:17;18.95;;;8.75;;
49392;SDS011;35268;42.642;23.308;2023-05-10T07:35:42;18.02;;;9.35;;
49392;SDS011;35268;42.642;23.308;2023-05-10T07:38:08;21.88;;;9.10;;
49392;SDS011;35268;42.642;23.308;2023-05-10T07:40:35;16.33;;;8.35;;
49392;SDS011;35268;42.642;23.308;2023-05-10T07:43:01;14.25;;;7.82;;
49392;SDS011;35268;42.642;23.308;2023-05-10T07:45:27;17.75;;;8.45;;
49392;SDS011;35268;42.642;23.308;2023-05-10T07:47:53;14.45;;;8.00;;
49392;SDS011;35268;42.642;23.308;2023-05-10T07:50:18;14.52;;;8.40;;
49392;SDS011;35268;42.642;23.308;2023-05-10T07:52:44;23.48;;;8.48;;
49392;SDS011;35268;42.642;23.308;2023-05-10T07:55:09;22.80;;;9.15;;
49392;SDS011;35268;42.642;23.308;2023-05-10T07:57:35;18.80;;;8.00;;
49392;SDS011;35268;42.642;23.308;2023-05-10T08:00:01;13.80;;;8.02;;
49392;SDS011;35268;42.642;23.308;2023-05-10T08:02:30;24.80;;;7.85;;
49392;SDS011;35268;42.642;23.308;2023-05-10T08:04:55;17.63;;;10.32;;
49392;SDS011;35268;42.642;23.308;2023-05-10T08:07:21;15.40;;;8.23;;
49392;SDS011;35268;42.642;23.308;2023-05-10T08:09:49;15.30;;;8.70;;
49392;SDS011;35268;42.642;23.308;2023-05-10T08:12:14;17.98;;;8.27;;
49392;SDS011;35268;42.642;23.308;2023-05-10T08:14:40;17.73;;;8.38;;
49392;SDS011;35268;42.642;23.308;2023-05-10T08:17:06;19.90;;;7.40;;
49392;SDS011;35268;42.642;23.308;2023-05-10T08:19:31;19.38;;;8.20;;
49392;SDS011;35268;42.642;23.308;2023-05-10T08:21:59;20.55;;;8.70;;
49392;SDS011;35268;42.642;23.308;2023-05-10T08:24:25;26.10;;;8.88;;
49392;SDS011;35268;42.642;23.308;2023-05-10T08:26:50;15.32;;;8.20;;
49392;SDS011;35268;42.642;23.308;2023-05-10T08:29:16;22.40;;;7.45;;
49392;SDS011;35268;42.642;23.308;2023-05-10T08:31:42;12.48;;;6.80;;
49392;SDS011;35268;42.642;23.308;2023-05-10T08:34:07;14.80;;;8.07;;
49392;SDS011;35268;42.642;23.308;2023-05-10T08:36:33;18.98;;;6.90;;
49392;SDS011;35268;42.642;23.308;2023-05-10T08:38:58;11.00;;;7.70;;
49392;SDS011;35268;42.642;23.308;2023-05-10T08:41:24;12.10;;;7.85;;
49392;SDS011;35268;42.642;23.308;2023-05-10T08:43:53;12.23;;;8.60;;
49392;SDS011;35268;42.642;23.308;2023-05-10T08:46:42;13.52;;;7.90;;
49392;SDS011;35268;42.642;23.308;2023-05-10T08:49:11;11.50;;;7.28;;
49392;SDS011;35268;42.642;23.308;2023-05-10T08:51:44;13.65;;;8.63;;
49392;SDS011;35268;42.642;23.308;2023-05-10T08:54:16;15.93;;;9.02;;
49392;SDS011;35268;42.642;23.308;2023-05-10T08:56:42;13.65;;;8.43;;
49392;SDS011;35268;42.642;23.308;2023-05-10T08:59:08;12.45;;;7.53;;
49392;SDS011;35268;42.642;23.308;2023-05-10T09:01:42;11.85;;;7.80;;
49392;SDS011;35268;42.642;23.308;2023-05-10T09:06:39;13.18;;;7.20;;
49392;SDS011;35268;42.642;23.308;2023-05-10T09:09:05;13.45;;;8.23;;
49392;SDS011;35268;42.642;23.308;2023-05-10T09:11:31;12.57;;;8.13;;
49392;SDS011;35268;42.642;23.308;2023-05-10T09:13:57;13.98;;;7.43;;
49392;SDS011;35268;42.642;23.308;2023-05-10T09:16:31;15.45;;;7.28;;
49392;SDS011;35268;42.642;23.308;2023-05-10T09:19:00;14.65;;;8.02;;
49392;SDS011;35268;42.642;23.308;2023-05-10T09:21:32;9.65;;;7.35;;
49392;SDS011;35268;42.642;23.308;2023-05-10T09:24:04;17.55;;;8.90;;
49392;SDS011;35268;42.642;23.308;2023-05-10T09:26:45;13.05;;;8.77;;
49392;SDS011;35268;42.642;23.308;2023-05-10T09:29:16;12.98;;;7.80;;
49392;SDS011;35268;42.642;23.308;2023-05-10T09:31:48;11.43;;;8.27;;
49392;SDS011;35268;42.642;23.308;2023-05-10T09:34:20;16.98;;;8.75;;
49392;SDS011;35268;42.642;23.308;2023-05-10T09:36:59;15.75;;;8.95;;
49392;SDS011;35268;42.642;23.308;2023-05-10T09:39:36;23.30;;;8.55;;
49392;SDS011;35268;42.642;23.308;2023-05-10T09:42:03;15.30;;;8.13;;
49392;SDS011;35268;42.642;23.308;2023-05-10T09:44:31;11.20;;;7.55;;
49392;SDS011;35268;42.642;23.308;2023-05-10T09:46:58;11.60;;;6.70;;
49392;SDS011;35268;42.642;23.308;2023-05-10T09:49:27;11.75;;;8.07;;
49392;SDS011;35268;42.642;23.308;2023-05-10T09:52:03;9.63;;;6.45;;
49392;SDS011;35268;42.642;23.308;2023-05-10T09:54:30;15.10;;;7.63;;
49392;SDS011;35268;42.642;23.308;2023-05-10T09:56:56;13.52;;;7.28;;
49392;SDS011;35268;42.642;23.308;2023-05-10T09:59:22;13.23;;;7.65;;
49392;SDS011;35268;42.642;23.308;2023-05-10T10:01:51;9.68;;;7.03;;
49392;SDS011;35268;42.642;23.308;2023-05-10T10:04:18;18.92;;;8.95;;
49392;SDS011;35268;42.642;23.308;2023-05-10T10:06:46;14.93;;;8.05;;
49392;SDS011;35268;42.642;23.308;2023-05-10T10:09:12;11.27;;;6.57;;
49392;SDS011;35268;42.642;23.308;2023-05-10T10:11:39;10.73;;;7.45;;
49392;SDS011;35268;42.642;23.308;2023-05-10T10:14:06;11.20;;;7.43;;
49392;SDS011;35268;42.642;23.308;2023-05-10T10:16:31;11.55;;;8.43;;
49392;SDS011;35268;42.642;23.308;2023-05-10T10:18:57;14.27;;;7.80;;
49392;SDS011;35268;42.642;23.308;2023-05-10T10:21:23;15.40;;;8.35;;
49392;SDS011;35268;42.642;23.308;2023-05-10T10:23:49;10.02;;;7.28;;
49392;SDS011;35268;42.642;23.308;2023-05-10T10:26:17;14.57;;;8.45;;
49392;SDS011;35268;42.642;23.308;2023-05-10T10:31:25;12.43;;;8.02;;
49392;SDS011;35268;42.642;23.308;2023-05-10T10:36:32;28.42;;;9.13;;
49392;SDS011;35268;42.642;23.308;2023-05-10T10:39:18;12.48;;;7.65;;
49392;SDS011;35268;42.642;23.308;2023-05-10T10:41:53;18.25;;;11.80;;
49392;SDS011;35268;42.642;23.308;2023-05-10T10:47:00;13.77;;;6.90;;
49392;SDS011;35268;42.642;23.308;2023-05-10T10:49:30;9.43;;;6.60;;
49392;SDS011;35268;42.642;23.308;2023-05-10T10:52:21;12.75;;;6.30;;
49392;SDS011;35268;42.642;23.308;2023-05-10T10:57:32;13.85;;;6.50;;
49392;SDS011;35268;42.642;23.308;2023-05-10T11:02:47;26.88;;;12.05;;
49392;SDS011;35268;42.642;23.308;2023-05-10T11:07:53;16.98;;;6.97;;
49392;SDS011;35268;42.642;23.308;2023-05-10T11:10:23;11.02;;;6.53;;
49392;SDS011;35268;42.642;23.308;2023-05-10T11:12:53;13.95;;;7.18;;
49392;SDS011;35268;42.642;23.308;2023-05-10T11:15:32;10.75;;;5.95;;
49392;SDS011;35268;42.642;23.308;2023-05-10T11:17:59;14.13;;;6.43;;
49392;SDS011;35268;42.642;23.308;2023-05-10T11:20:28;18.13;;;6.68;;
49392;SDS011;35268;42.642;23.308;2023-05-10T11:23:10;9.13;;;6.65;;
49392;SDS011;35268;42.642;23.308;2023-05-10T11:25:44;11.13;;;6.20;;
49392;SDS011;35268;42.642;23.308;2023-05-10T11:28:12;9.15;;;5.90;;
49392;SDS011;35268;42.642;23.308;2023-05-10T11:30:38;15.43;;;6.20;;
49392;SDS011;35268;42.642;23.308;2023-05-10T11:33:05;10.40;;;6.00;;
49392;SDS011;35268;42.642;23.308;2023-05-10T11:35:36;18.38;;;5.68;;
49392;SDS011;35268;42.642;23.308;2023-05-10T11:38:05;13.07;;;5.93;;
49392;SDS011;35268;42.642;23.308;2023-05-10T11:40:34;10.98;;;6.03;;
49392;SDS011;35268;42.642;23.308;2023-05-10T11:43:01;12.95;;;6.15;;
49392;SDS011;35268;42.642;23.308;2023-05-10T11:45:33;16.30;;;5.80;;
49392;SDS011;35268;42.642;23.308;2023-05-10T11:48:00;8.77;;;5.70;;
49392;SDS011;35268;42.642;23.308;2023-05-10T11:50:27;12.80;;;6.32;;
49392;SDS011;35268;42.642;23.308;2023-05-10T11:52:53;10.88;;;6.20;;
49392;SDS011;35268;42.642;23.308;2023-05-10T11:55:22;20.08;;;6.43;;
49392;SDS011;35268;42.642;23.308;2023-05-10T11:57:51;18.75;;;6.28;;
49392;SDS011;35268;42.642;23.308;2023-05-10T12:00:18;9.82;;;5.53;;
49392;SDS011;35268;42.642;23.308;2023-05-10T12:02:44;9.50;;;6.13;;
49392;SDS011;35268;42.642;23.308;2023-05-10T12:05:10;12.40;;;6.78;;
49392;SDS011;35268;42.642;23.308;2023-05-10T12:07:36;10.95;;;6.15;;
49392;SDS011;35268;42.642;23.308;2023-05-10T12:10:02;13.75;;;6.88;;
49392;SDS011;35268;42.642;23.308;2023-05-10T12:12:36;8.70;;;6.32;;
49392;SDS011;35268;42.642;23.308;2023-05-10T12:15:21;10.52;;;6.60;;
49392;SDS011;35268;42.642;23.308;2023-05-10T12:17:48;12.80;;;5.82;;
49392;SDS011;35268;42.642;23.308;2023-05-10T12:20:20;10.00;;;5.75;;
49392;SDS011;35268;42.642;23.308;2023-05-10T12:22:52;10.10;;;5.70;;
49392;SDS011;35268;42.642;23.308;2023-05-10T12:25:23;13.90;;;6.82;;
49392;SDS011;35268;42.642;23.308;2023-05-10T12:27:57;11.00;;;6.10;;
49392;SDS011;35268;42.642;23.308;2023-05-10T12:30:26;10.05;;;5.90;;
49392;SDS011;35268;42.642;23.308;2023-05-10T12:32:59;9.18;;;6.18;;
49392;SDS011;35268;42.642;23.308;2023-05-10T12:35:58;14.48;;;7.22;;
49392;SDS011;35268;42.642;23.308;2023-05-10T12:41:04;20.20;;;7.75;;
49392;SDS011;35268;42.642;23.308;2023-05-10T12:43:32;12.98;;;6.82;;
49392;SDS011;35268;42.642;23.308;2023-05-10T12:45:58;16.45;;;7.97;;
49392;SDS011;35268;42.642;23.308;2023-05-10T12:48:29;13.10;;;7.28;;
49392;SDS011;35268;42.642;23.308;2023-05-10T12:51:02;14.82;;;7.72;;
49392;SDS011;35268;42.642;23.308;2023-05-10T12:53:28;12.10;;;7.38;;
49392;SDS011;35268;42.642;23.308;2023-05-10T12:55:54;11.00;;;7.18;;
49392;SDS011;35268;42.642;23.308;2023-05-10T12:58:20;9.80;;;6.93;;
49392;SDS011;35268;42.642;23.308;2023-05-10T13:00:45;14.82;;;7.65;;
49392;SDS011;35268;42.642;23.308;2023-05-10T13:03:11;16.35;;;7.72;;
49392;SDS011;35268;42.642;23.308;2023-05-10T13:05:37;22.88;;;8.05;;
49392;SDS011;35268;42.642;23.308;2023-05-10T13:08:03;12.52;;;6.88;;
49392;SDS011;35268;42.642;23.308;2023-05-10T13:10:29;12.73;;;7.30;;
49392;SDS011;35268;42.642;23.308;2023-05-10T13:12:56;13.30;;;8.00;;
49392;SDS011;35268;42.642;23.308;2023-05-10T13:15:22;15.25;;;7.32;;
49392;SDS011;35268;42.642;23.308;2023-05-10T13:17:47;13.15;;;7.38;;
49392;SDS011;35268;42.642;23.308;2023-05-10T13:20:13;18.30;;;7.38;;
49392;SDS011;35268;42.642;23.308;2023-05-10T13:22:40;12.93;;;7.68;;
49392;SDS011;35268;42.642;23.308;2023-05-10T13:25:07;14.45;;;8.13;;
49392;SDS011;35268;42.642;23.308;2023-05-10T13:27:33;13.77;;;6.22;;
49392;SDS011;35268;42.642;23.308;2023-05-10T13:30:01;13.80;;;7.10;;
49392;SDS011;35268;42.642;23.308;2023-05-10T13:32:28;13.50;;;6.68;;
49392;SDS011;35268;42.642;23.308;2023-05-10T13:34:54;17.25;;;5.85;;
49392;SDS011;35268;42.642;23.308;2023-05-10T13:37:20;10.85;;;6.45;;
49392;SDS011;35268;42.642;23.308;2023-05-10T13:39:46;15.68;;;7.32;;
49392;SDS011;35268;42.642;23.308;2023-05-10T13:42:12;11.02;;;6.20;;
49392;SDS011;35268;42.642;23.308;2023-05-10T13:44:37;16.88;;;6.90;;
49392;SDS011;35268;42.642;23.308;2023-05-10T13:47:10;10.70;;;6.60;;
49392;SDS011;35268;42.642;23.308;2023-05-10T13:49:36;12.82;;;7.20;;
49392;SDS011;35268;42.642;23.308;2023-05-10T13:52:01;11.10;;;6.72;;
49392;SDS011;35268;42.642;23.308;2023-05-10T13:54:31;9.63;;;6.28;;
49392;SDS011;35268;42.642;23.308;2023-05-10T13:57:00;14.98;;;7.25;;
49392;SDS011;35268;42.642;23.308;2023-05-10T13:59:26;13.48;;;7.40;;
49392;SDS011;35268;42.642;23.308;2023-05-10T14:01:51;11.70;;;5.97;;
49392;SDS011;35268;42.642;23.308;2023-05-10T14:04:17;9.25;;;6.50;;
49392;SDS011;35268;42.642;23.308;2023-05-10T14:06:43;12.40;;;6.40;;
49392;SDS011;35268;42.642;23.308;2023-05-10T14:09:11;14.50;;;7.25;;
49392;SDS011;35268;42.642;23.308;2023-05-10T14:11:39;12.70;;;6.65;;
49392;SDS011;35268;42.642;23.308;2023-05-10T14:14:08;13.57;;;6.47;;
49392;SDS011;35268;42.642;23.308;2023-05-10T14:16:36;12.20;;;6.07;;
49392;SDS011;35268;42.642;23.308;2023-05-10T14:19:02;12.93;;;7.05;;
49392;SDS011;35268;42.642;23.308;2023-05-10T14:21:27;11.95;;;6.43;;
49392;SDS011;35268;42.642;23.308;2023-05-10T14:23:56;17.02;;;6.45;;
49392;SDS011;35268;42.642;23.308;2023-05-10T14:26:22;12.45;;;6.72;;
49392;SDS011;35268;42.642;23.308;2023-05-10T14:28:47;15.90;;;6.60;;
49392;SDS011;35268;42.642;23.308;2023-05-10T14:31:13;14.50;;;6.25;;
49392;SDS011;35268;42.642;23.308;2023-05-10T14:33:39;14.15;;;6.38;;
49392;SDS011;35268;42.642;23.308;2023-05-10T14:36:05;9.60;;;6.35;;
49392;SDS011;35268;42.642;23.308;2023-05-10T14:38:31;10.27;;;6.70;;
49392;SDS011;35268;42.642;23.308;2023-05-10T14:40:57;12.05;;;6.63;;
49392;SDS011;35268;42.642;23.308;2023-05-10T14:43:23;11.40;;;7.32;;
49392;SDS011;35268;42.642;23.308;2023-05-10T14:45:48;11.40;;;6.10;;
49392;SDS011;35268;42.642;23.308;2023-05-10T14:48:14;11.98;;;6.78;;
49392;SDS011;35268;42.642;23.308;2023-05-10T14:50:42;20.98;;;7.57;;
49392;SDS011;35268;42.642;23.308;2023-05-10T14:56:05;10.65;;;6.60;;
49392;SDS011;35268;42.642;23.308;2023-05-10T14:58:30;10.02;;;6.05;;
49392;SDS011;35268;42.642;23.308;2023-05-10T15:00:56;10.70;;;7.13;;
49392;SDS011;35268;42.642;23.308;2023-05-10T15:03:22;14.23;;;7.55;;
49392;SDS011;35268;42.642;23.308;2023-05-10T15:05:47;11.85;;;6.43;;
49392;SDS011;35268;42.642;23.308;2023-05-10T15:08:13;9.63;;;6.38;;
49392;SDS011;35268;42.642;23.308;2023-05-10T15:10:39;12.98;;;7.07;;